createdAt,value
2023-01-15T00:02:50.786Z,7.50
2023-01-15T00:06:59.296Z,7.50
2023-01-15T00:11:07.887Z,7.50
2023-01-15T00:15:16.458Z,7.40
2023-01-15T00:19:25.167Z,7.40
2023-01-15T00:28:06.597Z,7.50
2023-01-15T00:32:15.227Z,7.50
2023-01-15T00:36:23.955Z,7.50
2023-01-15T00:40:32.480Z,7.50
2023-01-15T00:44:41.404Z,7.50
2023-01-15T00:49:09.501Z,7.50
2023-01-15T00:53:18.131Z,7.50
2023-01-15T00:57:26.757Z,7.40
2023-01-15T01:01:35.517Z,7.50
2023-01-15T01:05:44.323Z,7.50
2023-01-15T01:09:52.952Z,7.50
2023-01-15T01:14:02.683Z,7.50
2023-01-15T01:18:11.464Z,7.50
2023-01-15T01:22:20.066Z,7.40
2023-01-15T01:26:48.256Z,7.40
2023-01-15T01:30:56.882Z,7.40
2023-01-15T01:35:06.248Z,7.50
2023-01-15T01:39:17.664Z,7.50
2023-01-15T01:43:29.249Z,7.40
2023-01-15T01:47:37.945Z,7.40
2023-01-15T01:51:52.315Z,7.40
2023-01-15T01:56:01.763Z,7.40
2023-01-15T02:00:12.344Z,7.40
2023-01-15T02:04:23.796Z,7.40
2023-01-15T02:08:32.867Z,7.40
2023-01-15T02:12:43.399Z,7.30
2023-01-15T02:17:10.202Z,7.30
2023-01-15T02:21:45.448Z,7.40
2023-01-15T02:26:27.157Z,7.30
2023-01-15T02:30:38.853Z,7.30
2023-01-15T02:34:51.549Z,7.40
2023-01-15T02:39:02.357Z,7.30
2023-01-15T02:43:13.545Z,7.30
2023-01-15T02:47:25.204Z,7.30
2023-01-15T02:51:36.852Z,7.30
2023-01-15T02:55:48.544Z,7.40
2023-01-15T03:00:00.653Z,7.40
2023-01-15T03:04:12.338Z,7.40
2023-01-15T03:08:21.074Z,7.40
2023-01-15T03:12:32.788Z,7.30
2023-01-15T03:16:44.432Z,7.30
2023-01-15T03:20:58.746Z,7.30
2023-01-15T03:25:09.789Z,7.30
2023-01-15T03:29:18.792Z,7.30
2023-01-15T03:33:28.010Z,7.30
2023-01-15T03:37:36.647Z,7.30
2023-01-15T03:41:53.879Z,7.30
2023-01-15T03:46:05.247Z,7.30
2023-01-15T03:54:52.631Z,7.40
2023-01-15T03:59:07.095Z,7.40
2023-01-15T04:03:17.052Z,7.30
2023-01-15T04:07:27.547Z,7.40
2023-01-15T04:11:36.647Z,7.30
2023-01-15T04:15:45.239Z,7.30
2023-01-15T04:19:53.802Z,7.40
2023-01-15T04:24:02.452Z,7.30
2023-01-15T04:28:11.086Z,7.30
2023-01-15T04:32:19.666Z,7.30
2023-01-15T04:36:28.241Z,7.30
2023-01-15T04:40:54.809Z,7.30
2023-01-15T04:45:03.518Z,7.20
2023-01-15T04:49:14.718Z,7.30
2023-01-15T04:53:23.377Z,7.30
2023-01-15T04:57:32.062Z,7.30
2023-01-15T05:01:48.596Z,7.30
2023-01-15T05:05:51.293Z,7.30
2023-01-15T05:09:59.878Z,7.40
2023-01-15T05:14:08.729Z,7.40
2023-01-15T05:18:17.282Z,7.30
2023-01-15T05:22:26.314Z,7.30
2023-01-15T05:26:36.385Z,7.40
2023-01-15T05:30:44.932Z,7.40
2023-01-15T05:34:53.520Z,7.40
2023-01-15T05:39:02.554Z,7.30
2023-01-15T05:43:11.279Z,7.40
2023-01-15T05:47:19.909Z,7.40
2023-01-15T05:51:29.151Z,7.40
2023-01-15T05:55:57.137Z,7.30
2023-01-15T06:00:06.841Z,7.30
2023-01-15T06:04:17.605Z,7.30
2023-01-15T06:08:26.193Z,7.40
2023-01-15T06:12:34.850Z,7.40
2023-01-15T06:16:43.767Z,7.40
2023-01-15T06:20:52.390Z,7.30
2023-01-15T06:25:01.028Z,7.30
2023-01-15T06:29:28.953Z,7.30
2023-01-15T06:33:37.770Z,7.40
2023-01-15T06:37:46.317Z,7.40
2023-01-15T06:46:45.619Z,7.30
2023-01-15T06:50:55.188Z,7.40
2023-01-15T06:55:03.759Z,7.40
2023-01-15T06:59:12.658Z,7.30
2023-01-15T07:03:21.364Z,7.30
2023-01-15T07:07:30.400Z,7.30
2023-01-15T07:11:43.619Z,7.30
2023-01-15T07:15:52.144Z,7.20
2023-01-15T07:20:01.080Z,7.20
2023-01-15T07:24:11.595Z,7.20
2023-01-15T07:28:20.799Z,7.30
2023-01-15T07:32:29.422Z,7.20
2023-01-15T07:36:38.255Z,7.20
2023-01-15T07:40:48.421Z,7.20
2023-01-15T07:45:15.035Z,7.10
2023-01-15T07:49:41.725Z,7.20
2023-01-15T07:53:50.269Z,7.20
2023-01-15T07:57:59.265Z,7.10
2023-01-15T08:02:07.997Z,7.10
2023-01-15T08:06:16.759Z,7.00
2023-01-15T08:10:26.168Z,7.10
2023-01-15T08:14:53.951Z,7.10
2023-01-15T08:19:02.619Z,7.10
2023-01-15T08:23:11.225Z,7.00
2023-01-15T08:31:54.135Z,7.10
2023-01-15T08:36:02.920Z,7.00
2023-01-15T08:40:13.310Z,6.90
2023-01-15T08:44:23.476Z,7.00
2023-01-15T08:48:33.384Z,6.90
2023-01-15T08:52:41.942Z,6.80
2023-01-15T08:56:50.569Z,6.90
2023-01-15T09:01:07.772Z,6.90
2023-01-15T09:05:16.537Z,6.80
2023-01-15T09:09:25.159Z,6.70
2023-01-15T09:13:33.965Z,6.80
2023-01-15T09:18:01.975Z,6.80
2023-01-15T09:22:31.065Z,6.70
2023-01-15T09:26:41.154Z,6.80
2023-01-15T09:31:09.182Z,6.80
2023-01-15T09:35:17.963Z,6.80
2023-01-15T09:39:26.639Z,6.80
2023-01-15T09:43:54.724Z,6.80
2023-01-15T09:48:21.031Z,6.90
2023-01-15T09:52:50.352Z,7.00
2023-01-15T09:56:59.439Z,7.10
2023-01-15T10:01:09.753Z,7.10
2023-01-15T10:05:24.532Z,7.10
2023-01-15T10:09:39.133Z,7.30
2023-01-15T10:13:56.520Z,7.20
2023-01-15T10:18:08.369Z,7.20
2023-01-15T10:22:23.016Z,7.20
2023-01-15T10:26:44.499Z,7.20
2023-01-15T10:30:58.287Z,7.30
2023-01-15T10:35:38.148Z,7.40
2023-01-15T10:40:24.142Z,7.50
2023-01-15T10:44:56.451Z,7.50
2023-01-15T10:49:25.907Z,7.60
2023-01-15T10:54:04.517Z,7.60
2023-01-15T10:58:16.225Z,7.60
2023-01-15T11:02:39.932Z,7.60
2023-01-15T11:06:49.174Z,7.60
2023-01-15T11:10:59.773Z,7.70
2023-01-15T11:15:29.036Z,7.70
2023-01-15T11:19:40.669Z,7.80
2023-01-15T11:23:50.031Z,7.70
2023-01-15T11:28:01.505Z,7.70
2023-01-15T11:32:21.801Z,7.80
2023-01-15T11:36:31.909Z,7.80
2023-01-15T11:40:40.903Z,7.80
2023-01-15T11:45:13.124Z,7.80
2023-01-15T11:49:40.407Z,7.80
2023-01-15T11:53:52.738Z,7.80
2023-01-15T11:58:02.651Z,7.80
2023-01-15T12:02:40.130Z,7.90
2023-01-15T12:06:49.201Z,7.80
2023-01-15T12:11:26.638Z,7.80
2023-01-15T12:15:40.125Z,7.70
2023-01-15T12:20:06.828Z,7.80
2023-01-15T12:24:21.005Z,7.80
2023-01-15T12:28:36.033Z,7.80
2023-01-15T12:32:47.650Z,7.90
2023-01-15T12:37:08.108Z,8.00
2023-01-15T12:41:25.726Z,7.90
2023-01-15T12:45:39.795Z,8.00
2023-01-15T12:49:53.988Z,8.00
2023-01-15T12:54:08.631Z,8.00
2023-01-15T12:58:53.447Z,8.00
2023-01-15T13:03:22.862Z,7.80
2023-01-15T13:07:46.345Z,7.80
2023-01-15T13:11:55.064Z,7.80
2023-01-15T13:16:15.361Z,7.80
2023-01-15T13:20:38.738Z,7.70
2023-01-15T13:25:41.346Z,7.80
2023-01-15T13:30:02.854Z,7.80
2023-01-15T13:34:34.023Z,7.80
2023-01-15T13:38:45.792Z,7.80
2023-01-15T13:42:55.677Z,7.70
2023-01-15T13:47:10.248Z,7.80
2023-01-15T13:51:24.505Z,7.80
2023-01-15T13:55:39.379Z,7.80
2023-01-15T13:59:49.644Z,7.80
2023-01-15T14:04:18.753Z,7.80
2023-01-15T14:08:30.454Z,7.90
2023-01-15T14:12:59.972Z,7.90
2023-01-15T14:17:28.468Z,7.90
2023-01-15T14:22:13.039Z,8.00
2023-01-15T14:26:36.623Z,7.90
2023-01-15T14:31:16.978Z,7.90
2023-01-15T14:35:27.681Z,7.80
2023-01-15T14:39:54.628Z,7.90
2023-01-15T14:44:03.774Z,7.90
2023-01-15T14:48:24.272Z,7.90
2023-01-15T14:52:33.114Z,7.90
2023-01-15T14:56:47.429Z,8.00
2023-01-15T15:00:59.164Z,7.90
2023-01-15T15:05:10.891Z,7.90
2023-01-15T15:09:31.292Z,7.90
2023-01-15T15:13:42.975Z,7.90
2023-01-15T15:18:15.775Z,7.90
2023-01-15T15:22:28.707Z,7.80
2023-01-15T15:26:39.683Z,7.80
2023-01-15T15:30:50.023Z,7.80
2023-01-15T15:34:59.708Z,7.70
2023-01-15T15:39:32.810Z,7.60
2023-01-15T15:44:10.950Z,7.70
2023-01-15T15:48:40.036Z,7.70
2023-01-15T15:52:52.780Z,7.70
2023-01-15T15:57:06.099Z,7.60
2023-01-15T16:01:15.045Z,7.60
2023-01-15T16:05:30.907Z,7.70
2023-01-15T16:09:40.125Z,7.70
2023-01-15T16:14:09.599Z,7.60
2023-01-15T16:18:21.299Z,7.70
2023-01-15T16:22:30.055Z,7.60
2023-01-15T16:26:47.666Z,7.50
2023-01-15T16:30:58.274Z,7.50
2023-01-15T16:35:26.428Z,7.40
2023-01-15T16:39:40.997Z,7.40
2023-01-15T16:43:58.523Z,7.40
2023-01-15T16:48:14.564Z,7.40
2023-01-15T16:52:43.643Z,7.30
2023-01-15T16:56:54.634Z,7.40
2023-01-15T17:01:06.806Z,7.40
2023-01-15T17:05:17.972Z,7.40
2023-01-15T17:09:27.117Z,7.40
2023-01-15T17:13:40.032Z,7.50
2023-01-15T17:17:50.725Z,7.40
2023-01-15T17:21:59.404Z,7.40
2023-01-15T17:26:08.500Z,7.40
2023-01-15T17:30:18.337Z,7.30
2023-01-15T17:34:46.283Z,7.40
2023-01-15T17:38:55.730Z,7.50
2023-01-15T17:43:04.299Z,7.50
2023-01-15T17:47:13.497Z,7.50
2023-01-15T17:51:22.061Z,7.40
2023-01-15T17:55:48.580Z,7.40
2023-01-15T18:00:15.037Z,7.50
2023-01-15T18:04:47.791Z,7.50
2023-01-15T18:08:59.346Z,7.50
2023-01-15T18:13:08.865Z,7.50
2023-01-15T18:17:36.761Z,7.40
2023-01-15T18:21:45.374Z,7.30
2023-01-15T18:25:54.003Z,7.40
2023-01-15T18:30:02.630Z,7.40
2023-01-15T18:34:11.155Z,7.30
2023-01-15T18:38:19.793Z,7.40
2023-01-15T18:42:46.743Z,7.40
2023-01-15T18:46:58.033Z,7.30
2023-01-15T18:51:26.028Z,7.20
2023-01-15T18:55:34.644Z,7.20
2023-01-15T18:59:45.703Z,7.20
2023-01-15T19:03:55.995Z,7.30
2023-01-15T19:08:04.577Z,7.30
2023-01-15T19:12:14.493Z,7.20
2023-01-15T19:16:41.044Z,7.30
2023-01-15T19:20:49.660Z,7.10
2023-01-15T19:24:58.394Z,7.00
2023-01-15T19:29:07.633Z,7.00
2023-01-15T19:33:16.118Z,6.90
2023-01-15T19:37:26.265Z,6.90
2023-01-15T19:41:52.402Z,6.80
2023-01-15T19:46:18.585Z,6.90
2023-01-15T19:50:38.903Z,6.80
2023-01-15T19:54:56.442Z,6.80
2023-01-15T19:59:05.086Z,6.80
2023-01-15T20:03:13.619Z,6.70
2023-01-15T20:07:22.228Z,6.70
2023-01-15T20:11:32.412Z,6.60
2023-01-15T20:15:43.815Z,6.60
2023-01-15T20:19:52.410Z,6.50
2023-01-15T20:24:01.002Z,6.50
2023-01-15T20:28:09.578Z,6.40
2023-01-15T20:32:18.220Z,6.40
2023-01-15T20:36:26.839Z,6.40
2023-01-15T20:40:35.458Z,6.40
2023-01-15T20:44:56.035Z,6.40
2023-01-15T20:49:23.026Z,6.40
2023-01-15T20:53:34.109Z,6.40
2023-01-15T20:57:43.690Z,6.40
2023-01-15T21:01:54.802Z,6.50
2023-01-15T21:06:04.727Z,6.40
2023-01-15T21:10:14.284Z,6.40
2023-01-15T21:14:22.886Z,6.50
2023-01-15T21:18:33.075Z,6.40
2023-01-15T21:22:44.341Z,6.40
2023-01-15T21:26:52.928Z,6.50
2023-01-15T21:31:03.112Z,6.50
2023-01-15T21:35:11.767Z,6.60
2023-01-15T21:39:20.710Z,6.60
2023-01-15T21:43:47.493Z,6.60
2023-01-15T21:48:15.374Z,6.70
2023-01-15T21:52:23.972Z,6.70
2023-01-15T21:56:32.592Z,6.70
2023-01-15T22:00:42.760Z,6.70
2023-01-15T22:04:51.491Z,6.70
2023-01-15T22:09:00.480Z,6.70
2023-01-15T22:13:09.159Z,6.70
2023-01-15T22:17:17.833Z,6.70
2023-01-15T22:21:26.415Z,6.60
2023-01-15T22:25:35.557Z,6.60
2023-01-15T22:29:44.597Z,6.50
2023-01-15T22:33:53.435Z,6.50
2023-01-15T22:38:21.342Z,6.50
2023-01-15T22:42:31.537Z,6.40
2023-01-15T22:46:40.304Z,6.40
2023-01-15T22:50:48.860Z,6.50
2023-01-15T22:54:57.669Z,6.60
2023-01-15T22:59:06.860Z,6.50
2023-01-15T23:03:15.535Z,6.50
2023-01-15T23:07:25.646Z,6.50
2023-01-15T23:11:53.579Z,6.60
2023-01-15T23:16:02.423Z,6.60
2023-01-15T23:20:13.113Z,6.60
2023-01-15T23:24:24.653Z,6.50
2023-01-15T23:28:52.526Z,6.60
2023-01-15T23:33:01.178Z,6.50
2023-01-15T23:37:29.096Z,6.70
2023-01-15T23:41:55.776Z,6.50
2023-01-15T23:46:23.534Z,6.50
2023-01-15T23:50:51.488Z,6.40
2023-01-15T23:55:00.040Z,6.30
2023-01-15T23:59:08.642Z,6.30
